sensor_id;sensor_type;location;lat;lon;timestamp;temperature;humidity
23560;DHT22;11958;50.836;4.438;2022-10-30T00:00:26;16.60;79.10
23560;DHT22;11958;50.836;4.438;2022-10-30T00:02:52;16.60;79.70
23560;DHT22;11958;50.836;4.438;2022-10-30T00:05:17;16.60;79.10
23560;DHT22;11958;50.836;4.438;2022-10-30T00:07:45;16.50;79.30
23560;DHT22;11958;50.836;4.438;2022-10-30T00:10:11;16.40;79.90
23560;DHT22;11958;50.836;4.438;2022-10-30T00:12:37;16.50;79.80
23560;DHT22;11958;50.836;4.438;2022-10-30T00:15:03;16.70;79.80
23560;DHT22;11958;50.836;4.438;2022-10-30T00:17:28;16.50;79.70
23560;DHT22;11958;50.836;4.438;2022-10-30T00:19:54;16.50;80.20
23560;DHT22;11958;50.836;4.438;2022-10-30T00:22:20;16.80;79.30
23560;DHT22;11958;50.836;4.438;2022-10-30T00:24:45;16.90;78.70
23560;DHT22;11958;50.836;4.438;2022-10-30T00:27:11;16.60;79.10
23560;DHT22;11958;50.836;4.438;2022-10-30T00:29:37;16.40;79.60
23560;DHT22;11958;50.836;4.438;2022-10-30T00:32:02;16.50;79.70
23560;DHT22;11958;50.836;4.438;2022-10-30T00:34:28;16.60;79.70
23560;DHT22;11958;50.836;4.438;2022-10-30T00:36:53;16.80;78.60
23560;DHT22;11958;50.836;4.438;2022-10-30T00:39:19;16.90;78.80
23560;DHT22;11958;50.836;4.438;2022-10-30T00:41:45;16.90;78.30
23560;DHT22;11958;50.836;4.438;2022-10-30T00:44:49;16.90;78.00
23560;DHT22;11958;50.836;4.438;2022-10-30T00:47:17;16.60;78.60
23560;DHT22;11958;50.836;4.438;2022-10-30T00:50:03;16.70;78.50
23560;DHT22;11958;50.836;4.438;2022-10-30T00:52:33;16.80;78.40
23560;DHT22;11958;50.836;4.438;2022-10-30T00:55:03;17.20;77.70
23560;DHT22;11958;50.836;4.438;2022-10-30T00:57:30;16.90;78.10
23560;DHT22;11958;50.836;4.438;2022-10-30T00:59:56;16.50;78.80
23560;DHT22;11958;50.836;4.438;2022-10-30T01:02:22;16.30;80.10
23560;DHT22;11958;50.836;4.438;2022-10-30T01:04:49;16.50;79.60
23560;DHT22;11958;50.836;4.438;2022-10-30T01:07:16;16.50;79.00
23560;DHT22;11958;50.836;4.438;2022-10-30T01:09:42;16.10;80.20
23560;DHT22;11958;50.836;4.438;2022-10-30T01:12:08;16.20;80.30
23560;DHT22;11958;50.836;4.438;2022-10-30T01:14:41;16.30;80.90
23560;DHT22;11958;50.836;4.438;2022-10-30T01:17:32;16.10;81.40
23560;DHT22;11958;50.836;4.438;2022-10-30T01:23:45;16.40;80.40
23560;DHT22;11958;50.836;4.438;2022-10-30T01:31:55;16.40;79.40
23560;DHT22;11958;50.836;4.438;2022-10-30T01:37:15;16.50;79.70
23560;DHT22;11958;50.836;4.438;2022-10-30T01:39:43;16.30;79.40
23560;DHT22;11958;50.836;4.438;2022-10-30T01:42:43;16.00;81.10
23560;DHT22;11958;50.836;4.438;2022-10-30T01:45:24;15.90;81.70
23560;DHT22;11958;50.836;4.438;2022-10-30T01:48:13;15.90;82.00
23560;DHT22;11958;50.836;4.438;2022-10-30T01:56:27;15.90;81.60
23560;DHT22;11958;50.836;4.438;2022-10-30T02:01:47;16.10;81.80
23560;DHT22;11958;50.836;4.438;2022-10-30T02:04:13;16.10;81.90
23560;DHT22;11958;50.836;4.438;2022-10-30T02:06:39;16.10;81.50
23560;DHT22;11958;50.836;4.438;2022-10-30T02:09:05;16.30;81.30
23560;DHT22;11958;50.836;4.438;2022-10-30T02:11:33;15.90;81.90
23560;DHT22;11958;50.836;4.438;2022-10-30T02:14:03;16.10;82.10
23560;DHT22;11958;50.836;4.438;2022-10-30T02:16:31;16.20;81.50
23560;DHT22;11958;50.836;4.438;2022-10-30T02:18:58;16.00;81.80
23560;DHT22;11958;50.836;4.438;2022-10-30T02:21:26;15.90;82.50
23560;DHT22;11958;50.836;4.438;2022-10-30T02:23:51;16.00;81.90
23560;DHT22;11958;50.836;4.438;2022-10-30T02:26:17;16.00;82.00
23560;DHT22;11958;50.836;4.438;2022-10-30T02:28:43;15.80;82.30
23560;DHT22;11958;50.836;4.438;2022-10-30T02:31:08;15.60;83.10
23560;DHT22;11958;50.836;4.438;2022-10-30T02:33:34;15.50;83.10
23560;DHT22;11958;50.836;4.438;2022-10-30T02:36:00;15.30;84.80
23560;DHT22;11958;50.836;4.438;2022-10-30T02:38:25;15.10;85.20
23560;DHT22;11958;50.836;4.438;2022-10-30T02:40:56;15.20;85.20
23560;DHT22;11958;50.836;4.438;2022-10-30T02:43:25;15.50;83.00
23560;DHT22;11958;50.836;4.438;2022-10-30T02:45:51;15.60;82.70
23560;DHT22;11958;50.836;4.438;2022-10-30T02:48:16;15.60;82.30
23560;DHT22;11958;50.836;4.438;2022-10-30T02:50:42;15.60;82.30
23560;DHT22;11958;50.836;4.438;2022-10-30T02:53:08;16.00;81.10
23560;DHT22;11958;50.836;4.438;2022-10-30T02:55:33;15.70;81.80
23560;DHT22;11958;50.836;4.438;2022-10-30T02:57:59;15.60;82.10
23560;DHT22;11958;50.836;4.438;2022-10-30T03:00:24;15.40;84.20
23560;DHT22;11958;50.836;4.438;2022-10-30T03:02:54;15.50;82.60
23560;DHT22;11958;50.836;4.438;2022-10-30T03:05:20;15.50;83.10
23560;DHT22;11958;50.836;4.438;2022-10-30T03:07:46;15.40;84.20
23560;DHT22;11958;50.836;4.438;2022-10-30T03:10:13;15.30;84.50
23560;DHT22;11958;50.836;4.438;2022-10-30T03:12:39;15.30;84.70
23560;DHT22;11958;50.836;4.438;2022-10-30T03:15:05;15.20;84.70
23560;DHT22;11958;50.836;4.438;2022-10-30T03:17:31;15.50;82.90
23560;DHT22;11958;50.836;4.438;2022-10-30T03:19:57;15.50;83.00
23560;DHT22;11958;50.836;4.438;2022-10-30T03:22:22;15.80;81.80
23560;DHT22;11958;50.836;4.438;2022-10-30T03:24:48;15.90;81.60
23560;DHT22;11958;50.836;4.438;2022-10-30T03:27:14;16.00;81.30
23560;DHT22;11958;50.836;4.438;2022-10-30T03:29:39;15.90;81.60
23560;DHT22;11958;50.836;4.438;2022-10-30T03:32:09;15.70;81.80
23560;DHT22;11958;50.836;4.438;2022-10-30T03:34:35;15.40;82.60
23560;DHT22;11958;50.836;4.438;2022-10-30T03:37:16;15.20;84.50
23560;DHT22;11958;50.836;4.438;2022-10-30T03:39:42;15.00;85.20
23560;DHT22;11958;50.836;4.438;2022-10-30T03:42:07;15.50;82.70
23560;DHT22;11958;50.836;4.438;2022-10-30T03:44:33;15.40;82.80
23560;DHT22;11958;50.836;4.438;2022-10-30T03:46:58;15.50;82.80
23560;DHT22;11958;50.836;4.438;2022-10-30T03:49:24;15.50;82.80
23560;DHT22;11958;50.836;4.438;2022-10-30T03:51:50;15.50;82.90
23560;DHT22;11958;50.836;4.438;2022-10-30T03:54:15;15.50;82.50
23560;DHT22;11958;50.836;4.438;2022-10-30T03:56:41;15.20;83.90
23560;DHT22;11958;50.836;4.438;2022-10-30T03:59:08;15.00;85.10
23560;DHT22;11958;50.836;4.438;2022-10-30T04:01:34;15.20;85.30
23560;DHT22;11958;50.836;4.438;2022-10-30T04:04:00;15.30;84.50
23560;DHT22;11958;50.836;4.438;2022-10-30T04:06:25;15.20;84.90
23560;DHT22;11958;50.836;4.438;2022-10-30T04:08:53;15.30;84.50
23560;DHT22;11958;50.836;4.438;2022-10-30T04:11:19;15.20;84.40
23560;DHT22;11958;50.836;4.438;2022-10-30T04:13:45;15.00;85.40
23560;DHT22;11958;50.836;4.438;2022-10-30T04:16:10;14.90;85.70
23560;DHT22;11958;50.836;4.438;2022-10-30T04:18:36;14.90;85.60
23560;DHT22;11958;50.836;4.438;2022-10-30T04:21:02;14.70;86.10
23560;DHT22;11958;50.836;4.438;2022-10-30T04:23:27;15.20;84.70
23560;DHT22;11958;50.836;4.438;2022-10-30T04:25:53;15.40;83.60
23560;DHT22;11958;50.836;4.438;2022-10-30T04:28:19;15.10;84.10
23560;DHT22;11958;50.836;4.438;2022-10-30T04:30:46;14.90;85.10
23560;DHT22;11958;50.836;4.438;2022-10-30T04:33:12;14.60;85.70
23560;DHT22;11958;50.836;4.438;2022-10-30T04:35:40;14.60;86.30
23560;DHT22;11958;50.836;4.438;2022-10-30T04:38:13;14.40;87.00
23560;DHT22;11958;50.836;4.438;2022-10-30T04:40:40;14.30;87.80
23560;DHT22;11958;50.836;4.438;2022-10-30T04:43:08;14.20;88.00
23560;DHT22;11958;50.836;4.438;2022-10-30T04:45:34;14.20;88.10
23560;DHT22;11958;50.836;4.438;2022-10-30T04:48:02;14.30;87.70
23560;DHT22;11958;50.836;4.438;2022-10-30T04:50:27;14.20;88.20
23560;DHT22;11958;50.836;4.438;2022-10-30T04:53:04;14.20;88.20
23560;DHT22;11958;50.836;4.438;2022-10-30T04:55:30;14.50;87.60
23560;DHT22;11958;50.836;4.438;2022-10-30T04:57:59;14.60;86.50
23560;DHT22;11958;50.836;4.438;2022-10-30T05:00:27;14.50;87.00
23560;DHT22;11958;50.836;4.438;2022-10-30T05:02:53;14.60;86.50
23560;DHT22;11958;50.836;4.438;2022-10-30T05:05:19;14.50;87.30
23560;DHT22;11958;50.836;4.438;2022-10-30T05:07:45;14.30;88.20
23560;DHT22;11958;50.836;4.438;2022-10-30T05:10:14;14.40;88.20
23560;DHT22;11958;50.836;4.438;2022-10-30T05:12:42;14.30;88.00
23560;DHT22;11958;50.836;4.438;2022-10-30T05:15:09;14.30;88.40
23560;DHT22;11958;50.836;4.438;2022-10-30T05:17:35;14.30;88.10
23560;DHT22;11958;50.836;4.438;2022-10-30T05:20:00;14.20;88.20
23560;DHT22;11958;50.836;4.438;2022-10-30T05:22:26;14.20;88.40
23560;DHT22;11958;50.836;4.438;2022-10-30T05:24:52;14.10;88.30
23560;DHT22;11958;50.836;4.438;2022-10-30T05:27:17;13.90;88.50
23560;DHT22;11958;50.836;4.438;2022-10-30T05:29:43;14.00;89.10
23560;DHT22;11958;50.836;4.438;2022-10-30T05:32:08;13.90;89.30
23560;DHT22;11958;50.836;4.438;2022-10-30T05:34:34;13.90;89.30
23560;DHT22;11958;50.836;4.438;2022-10-30T05:37:00;14.10;88.70
23560;DHT22;11958;50.836;4.438;2022-10-30T05:39:26;14.20;88.40
23560;DHT22;11958;50.836;4.438;2022-10-30T05:41:52;14.10;88.40
23560;DHT22;11958;50.836;4.438;2022-10-30T05:44:18;14.00;88.90
23560;DHT22;11958;50.836;4.438;2022-10-30T05:46:43;13.90;88.90
23560;DHT22;11958;50.836;4.438;2022-10-30T05:49:09;13.80;89.30
23560;DHT22;11958;50.836;4.438;2022-10-30T05:51:35;13.90;89.10
23560;DHT22;11958;50.836;4.438;2022-10-30T05:54:00;13.80;89.10
23560;DHT22;11958;50.836;4.438;2022-10-30T05:56:26;13.90;89.10
23560;DHT22;11958;50.836;4.438;2022-10-30T05:58:52;14.20;88.60
23560;DHT22;11958;50.836;4.438;2022-10-30T06:01:17;14.10;88.30
23560;DHT22;11958;50.836;4.438;2022-10-30T06:03:43;14.30;88.00
23560;DHT22;11958;50.836;4.438;2022-10-30T06:06:10;14.10;88.00
23560;DHT22;11958;50.836;4.438;2022-10-30T06:08:35;14.10;88.40
23560;DHT22;11958;50.836;4.438;2022-10-30T06:11:01;14.00;88.40
23560;DHT22;11958;50.836;4.438;2022-10-30T06:13:26;14.00;88.10
23560;DHT22;11958;50.836;4.438;2022-10-30T06:15:55;13.80;88.90
23560;DHT22;11958;50.836;4.438;2022-10-30T06:18:21;13.80;89.20
23560;DHT22;11958;50.836;4.438;2022-10-30T06:20:47;13.80;89.60
23560;DHT22;11958;50.836;4.438;2022-10-30T06:23:13;13.80;89.20
23560;DHT22;11958;50.836;4.438;2022-10-30T06:25:39;13.90;89.20
23560;DHT22;11958;50.836;4.438;2022-10-30T06:28:05;13.80;88.90
23560;DHT22;11958;50.836;4.438;2022-10-30T06:30:31;13.90;89.10
23560;DHT22;11958;50.836;4.438;2022-10-30T06:33:01;13.80;89.70
23560;DHT22;11958;50.836;4.438;2022-10-30T06:35:27;13.90;89.20
23560;DHT22;11958;50.836;4.438;2022-10-30T06:37:54;14.00;88.70
23560;DHT22;11958;50.836;4.438;2022-10-30T06:40:21;14.10;88.40
23560;DHT22;11958;50.836;4.438;2022-10-30T06:42:51;14.30;87.80
23560;DHT22;11958;50.836;4.438;2022-10-30T06:45:19;14.00;88.10
23560;DHT22;11958;50.836;4.438;2022-10-30T06:48:05;13.90;88.80
23560;DHT22;11958;50.836;4.438;2022-10-30T06:50:31;14.30;88.00
23560;DHT22;11958;50.836;4.438;2022-10-30T06:52:56;14.10;88.60
23560;DHT22;11958;50.836;4.438;2022-10-30T06:55:22;14.00;88.90
23560;DHT22;11958;50.836;4.438;2022-10-30T06:57:55;13.90;89.30
23560;DHT22;11958;50.836;4.438;2022-10-30T07:00:21;13.90;89.20
23560;DHT22;11958;50.836;4.438;2022-10-30T07:02:57;14.10;89.50
23560;DHT22;11958;50.836;4.438;2022-10-30T07:05:23;14.70;87.10
23560;DHT22;11958;50.836;4.438;2022-10-30T07:07:48;14.50;87.40
23560;DHT22;11958;50.836;4.438;2022-10-30T07:10:14;14.40;87.40
23560;DHT22;11958;50.836;4.438;2022-10-30T07:12:41;14.30;88.00
23560;DHT22;11958;50.836;4.438;2022-10-30T07:15:06;14.20;88.60
23560;DHT22;11958;50.836;4.438;2022-10-30T07:17:34;14.30;88.90
23560;DHT22;11958;50.836;4.438;2022-10-30T07:19:59;14.40;89.10
23560;DHT22;11958;50.836;4.438;2022-10-30T07:22:25;14.40;88.20
23560;DHT22;11958;50.836;4.438;2022-10-30T07:24:51;14.40;88.30
23560;DHT22;11958;50.836;4.438;2022-10-30T07:27:16;14.30;88.70
23560;DHT22;11958;50.836;4.438;2022-10-30T07:29:42;14.40;88.70
23560;DHT22;11958;50.836;4.438;2022-10-30T07:32:11;14.60;88.60
23560;DHT22;11958;50.836;4.438;2022-10-30T07:34:37;14.70;88.20
23560;DHT22;11958;50.836;4.438;2022-10-30T07:37:02;14.70;87.50
23560;DHT22;11958;50.836;4.438;2022-10-30T07:39:28;14.90;87.60
23560;DHT22;11958;50.836;4.438;2022-10-30T07:41:53;15.10;86.80
23560;DHT22;11958;50.836;4.438;2022-10-30T07:44:19;15.00;86.40
23560;DHT22;11958;50.836;4.438;2022-10-30T07:46:44;15.30;86.10
23560;DHT22;11958;50.836;4.438;2022-10-30T07:49:19;15.40;85.60
23560;DHT22;11958;50.836;4.438;2022-10-30T07:51:45;15.30;85.50
23560;DHT22;11958;50.836;4.438;2022-10-30T07:54:10;15.10;86.10
23560;DHT22;11958;50.836;4.438;2022-10-30T07:56:36;15.20;86.00
23560;DHT22;11958;50.836;4.438;2022-10-30T07:59:01;15.30;86.10
23560;DHT22;11958;50.836;4.438;2022-10-30T08:01:27;15.20;86.40
23560;DHT22;11958;50.836;4.438;2022-10-30T08:03:53;15.40;84.90
23560;DHT22;11958;50.836;4.438;2022-10-30T08:06:18;15.60;84.70
23560;DHT22;11958;50.836;4.438;2022-10-30T08:08:44;15.60;84.40
23560;DHT22;11958;50.836;4.438;2022-10-30T08:11:10;15.70;84.20
23560;DHT22;11958;50.836;4.438;2022-10-30T08:13:41;15.70;83.80
23560;DHT22;11958;50.836;4.438;2022-10-30T08:16:07;16.00;83.50
23560;DHT22;11958;50.836;4.438;2022-10-30T08:18:32;16.10;83.30
23560;DHT22;11958;50.836;4.438;2022-10-30T08:20:58;16.20;82.90
23560;DHT22;11958;50.836;4.438;2022-10-30T08:23:24;16.40;82.30
23560;DHT22;11958;50.836;4.438;2022-10-30T08:25:49;16.40;82.50
23560;DHT22;11958;50.836;4.438;2022-10-30T08:28:15;16.50;81.90
23560;DHT22;11958;50.836;4.438;2022-10-30T08:30:41;16.50;81.60
23560;DHT22;11958;50.836;4.438;2022-10-30T08:33:10;16.70;81.60
23560;DHT22;11958;50.836;4.438;2022-10-30T08:35:37;16.70;81.20
23560;DHT22;11958;50.836;4.438;2022-10-30T08:38:03;16.80;80.60
23560;DHT22;11958;50.836;4.438;2022-10-30T08:40:29;16.90;80.70
23560;DHT22;11958;50.836;4.438;2022-10-30T08:42:56;17.00;80.10
23560;DHT22;11958;50.836;4.438;2022-10-30T08:45:23;17.20;80.20
23560;DHT22;11958;50.836;4.438;2022-10-30T08:48:00;17.10;79.30
23560;DHT22;11958;50.836;4.438;2022-10-30T08:50:27;17.40;79.20
23560;DHT22;11958;50.836;4.438;2022-10-30T08:52:53;17.30;79.40
23560;DHT22;11958;50.836;4.438;2022-10-30T08:55:18;17.20;80.00
23560;DHT22;11958;50.836;4.438;2022-10-30T08:57:44;17.30;80.40
23560;DHT22;11958;50.836;4.438;2022-10-30T09:00:10;17.30;79.70
23560;DHT22;11958;50.836;4.438;2022-10-30T09:02:36;17.30;79.30
23560;DHT22;11958;50.836;4.438;2022-10-30T09:05:06;17.20;79.00
23560;DHT22;11958;50.836;4.438;2022-10-30T09:07:32;17.20;77.40
23560;DHT22;11958;50.836;4.438;2022-10-30T09:15:34;17.00;78.20
23560;DHT22;11958;50.836;4.438;2022-10-30T09:18:02;17.10;78.10
23560;DHT22;11958;50.836;4.438;2022-10-30T09:20:29;17.30;77.50
23560;DHT22;11958;50.836;4.438;2022-10-30T09:22:55;17.70;76.50
23560;DHT22;11958;50.836;4.438;2022-10-30T09:25:21;17.60;76.80
23560;DHT22;11958;50.836;4.438;2022-10-30T09:27:47;17.70;76.90
23560;DHT22;11958;50.836;4.438;2022-10-30T09:30:13;17.90;74.40
23560;DHT22;11958;50.836;4.438;2022-10-30T09:32:39;18.00;74.30
23560;DHT22;11958;50.836;4.438;2022-10-30T09:35:05;18.10;75.10
23560;DHT22;11958;50.836;4.438;2022-10-30T09:37:35;18.30;72.90
23560;DHT22;11958;50.836;4.438;2022-10-30T09:40:02;18.40;71.40
23560;DHT22;11958;50.836;4.438;2022-10-30T09:42:47;18.50;70.70
23560;DHT22;11958;50.836;4.438;2022-10-30T09:50:45;19.00;68.60
23560;DHT22;11958;50.836;4.438;2022-10-30T09:56:34;19.10;68.30
23560;DHT22;11958;50.836;4.438;2022-10-30T10:04:55;19.70;65.80
23560;DHT22;11958;50.836;4.438;2022-10-30T10:07:32;19.50;65.90
23560;DHT22;11958;50.836;4.438;2022-10-30T10:10:03;19.30;66.50
23560;DHT22;11958;50.836;4.438;2022-10-30T10:12:37;19.50;65.80
23560;DHT22;11958;50.836;4.438;2022-10-30T10:15:10;19.60;67.50
23560;DHT22;11958;50.836;4.438;2022-10-30T10:17:40;19.80;66.80
23560;DHT22;11958;50.836;4.438;2022-10-30T10:20:31;19.90;65.10
23560;DHT22;11958;50.836;4.438;2022-10-30T10:22:59;19.80;64.60
23560;DHT22;11958;50.836;4.438;2022-10-30T10:25:30;19.50;63.20
23560;DHT22;11958;50.836;4.438;2022-10-30T10:55:56;20.20;62.30
23560;DHT22;11958;50.836;4.438;2022-10-30T10:58:38;19.90;63.50
23560;DHT22;11958;50.836;4.438;2022-10-30T11:01:33;20.20;63.50
23560;DHT22;11958;50.836;4.438;2022-10-30T11:09:55;20.70;62.90
23560;DHT22;11958;50.836;4.438;2022-10-30T11:12:29;20.90;61.00
23560;DHT22;11958;50.836;4.438;2022-10-30T11:15:17;20.90;62.10
23560;DHT22;11958;50.836;4.438;2022-10-30T11:18:12;20.70;62.10
23560;DHT22;11958;50.836;4.438;2022-10-30T11:20:46;20.80;62.80
23560;DHT22;11958;50.836;4.438;2022-10-30T11:23:32;21.00;60.40
23560;DHT22;11958;50.836;4.438;2022-10-30T11:25:58;20.90;60.90
23560;DHT22;11958;50.836;4.438;2022-10-30T11:28:49;21.20;60.40
23560;DHT22;11958;50.836;4.438;2022-10-30T11:31:27;21.30;59.50
23560;DHT22;11958;50.836;4.438;2022-10-30T11:36:45;21.50;59.50
23560;DHT22;11958;50.836;4.438;2022-10-30T11:39:23;21.50;60.80
23560;DHT22;11958;50.836;4.438;2022-10-30T11:42:12;21.50;60.50
23560;DHT22;11958;50.836;4.438;2022-10-30T11:44:42;21.90;59.80
23560;DHT22;11958;50.836;4.438;2022-10-30T11:47:09;21.80;58.70
23560;DHT22;11958;50.836;4.438;2022-10-30T11:49:58;21.90;59.50
23560;DHT22;11958;50.836;4.438;2022-10-30T11:52:25;22.00;58.10
23560;DHT22;11958;50.836;4.438;2022-10-30T11:57:57;21.60;57.60
23560;DHT22;11958;50.836;4.438;2022-10-30T12:00:38;21.60;57.20
23560;DHT22;11958;50.836;4.438;2022-10-30T12:03:41;21.30;57.90
23560;DHT22;11958;50.836;4.438;2022-10-30T12:11:31;21.40;60.20
23560;DHT22;11958;50.836;4.438;2022-10-30T12:14:19;21.20;58.70
23560;DHT22;11958;50.836;4.438;2022-10-30T12:16:55;21.30;59.50
23560;DHT22;11958;50.836;4.438;2022-10-30T12:19:23;21.80;59.50
23560;DHT22;11958;50.836;4.438;2022-10-30T12:21:53;22.00;58.50
23560;DHT22;11958;50.836;4.438;2022-10-30T12:24:33;21.90;58.50
23560;DHT22;11958;50.836;4.438;2022-10-30T12:27:02;22.00;58.70
23560;DHT22;11958;50.836;4.438;2022-10-30T12:32:17;22.30;58.40
23560;DHT22;11958;50.836;4.438;2022-10-30T12:34:47;22.00;56.80
23560;DHT22;11958;50.836;4.438;2022-10-30T12:37:37;22.00;57.80
23560;DHT22;11958;50.836;4.438;2022-10-30T12:42:44;22.20;55.80
23560;DHT22;11958;50.836;4.438;2022-10-30T12:45:17;22.50;56.10
23560;DHT22;11958;50.836;4.438;2022-10-30T12:48:04;22.90;55.60
23560;DHT22;11958;50.836;4.438;2022-10-30T12:56:36;25.50;46.90
23560;DHT22;11958;50.836;4.438;2022-10-30T13:07:49;28.30;38.00
23560;DHT22;11958;50.836;4.438;2022-10-30T13:10:26;28.40;37.10
23560;DHT22;11958;50.836;4.438;2022-10-30T13:12:57;28.60;36.20
23560;DHT22;11958;50.836;4.438;2022-10-30T13:18:45;28.60;37.50
23560;DHT22;11958;50.836;4.438;2022-10-30T13:24:04;28.10;36.60
23560;DHT22;11958;50.836;4.438;2022-10-30T13:26:57;28.30;37.30
23560;DHT22;11958;50.836;4.438;2022-10-30T13:29:38;27.50;37.30
23560;DHT22;11958;50.836;4.438;2022-10-30T13:35:09;27.10;38.90
23560;DHT22;11958;50.836;4.438;2022-10-30T13:37:46;27.60;37.90
23560;DHT22;11958;50.836;4.438;2022-10-30T13:40:22;28.20;35.80
23560;DHT22;11958;50.836;4.438;2022-10-30T13:43:16;27.80;37.60
23560;DHT22;11958;50.836;4.438;2022-10-30T13:51:38;24.50;43.90
23560;DHT22;11958;50.836;4.438;2022-10-30T13:54:22;24.40;44.50
23560;DHT22;11958;50.836;4.438;2022-10-30T13:56:50;24.30;45.30
23560;DHT22;11958;50.836;4.438;2022-10-30T13:59:55;24.00;46.00
23560;DHT22;11958;50.836;4.438;2022-10-30T14:05:41;22.90;49.40
23560;DHT22;11958;50.836;4.438;2022-10-30T14:10:59;21.80;54.50
23560;DHT22;11958;50.836;4.438;2022-10-30T14:13:44;21.80;55.30
23560;DHT22;11958;50.836;4.438;2022-10-30T14:16:48;21.50;54.90
23560;DHT22;11958;50.836;4.438;2022-10-30T14:19:17;21.20;55.70
23560;DHT22;11958;50.836;4.438;2022-10-30T14:21:55;21.10;55.30
23560;DHT22;11958;50.836;4.438;2022-10-30T14:24:28;21.10;55.50
23560;DHT22;11958;50.836;4.438;2022-10-30T14:29:36;20.90;57.10
23560;DHT22;11958;50.836;4.438;2022-10-30T14:37:17;21.10;57.40
23560;DHT22;11958;50.836;4.438;2022-10-30T14:40:29;20.90;57.20
23560;DHT22;11958;50.836;4.438;2022-10-30T14:43:02;20.70;59.10
23560;DHT22;11958;50.836;4.438;2022-10-30T14:45:51;20.50;59.60
23560;DHT22;11958;50.836;4.438;2022-10-30T14:51:29;20.30;61.60
23560;DHT22;11958;50.836;4.438;2022-10-30T14:54:21;20.20;62.90
23560;DHT22;11958;50.836;4.438;2022-10-30T14:56:50;20.20;63.20
23560;DHT22;11958;50.836;4.438;2022-10-30T15:07:06;20.20;66.00
23560;DHT22;11958;50.836;4.438;2022-10-30T15:12:21;19.80;66.70
23560;DHT22;11958;50.836;4.438;2022-10-30T15:14:58;19.70;67.40
23560;DHT22;11958;50.836;4.438;2022-10-30T15:17:29;19.70;68.60
23560;DHT22;11958;50.836;4.438;2022-10-30T15:19:58;19.50;67.80
23560;DHT22;11958;50.836;4.438;2022-10-30T15:22:26;19.60;68.30
23560;DHT22;11958;50.836;4.438;2022-10-30T15:24:53;19.60;68.40
23560;DHT22;11958;50.836;4.438;2022-10-30T15:27:21;19.50;67.90
23560;DHT22;11958;50.836;4.438;2022-10-30T15:30:00;19.50;68.60
23560;DHT22;11958;50.836;4.438;2022-10-30T15:32:27;19.30;68.80
23560;DHT22;11958;50.836;4.438;2022-10-30T15:35:00;19.40;68.20
23560;DHT22;11958;50.836;4.438;2022-10-30T15:37:27;19.30;69.30
23560;DHT22;11958;50.836;4.438;2022-10-30T15:40:09;19.40;70.30
23560;DHT22;11958;50.836;4.438;2022-10-30T15:42:38;19.20;70.20
23560;DHT22;11958;50.836;4.438;2022-10-30T15:45:04;19.30;69.90
23560;DHT22;11958;50.836;4.438;2022-10-30T15:47:30;19.10;71.10
23560;DHT22;11958;50.836;4.438;2022-10-30T15:49:56;19.10;71.60
23560;DHT22;11958;50.836;4.438;2022-10-30T15:52:25;18.90;72.10
23560;DHT22;11958;50.836;4.438;2022-10-30T15:55:15;18.90;71.90
23560;DHT22;11958;50.836;4.438;2022-10-30T15:57:43;18.70;72.40
23560;DHT22;11958;50.836;4.438;2022-10-30T16:00:22;18.70;73.00
23560;DHT22;11958;50.836;4.438;2022-10-30T16:03:18;18.70;73.10
23560;DHT22;11958;50.836;4.438;2022-10-30T16:05:43;18.70;73.40
23560;DHT22;11958;50.836;4.438;2022-10-30T16:08:16;18.70;73.50
23560;DHT22;11958;50.836;4.438;2022-10-30T16:10:44;18.70;73.80
23560;DHT22;11958;50.836;4.438;2022-10-30T16:13:16;18.60;74.30
23560;DHT22;11958;50.836;4.438;2022-10-30T16:15:46;18.50;74.90
23560;DHT22;11958;50.836;4.438;2022-10-30T16:21:27;18.50;74.90
23560;DHT22;11958;50.836;4.438;2022-10-30T16:24:01;18.50;75.10
23560;DHT22;11958;50.836;4.438;2022-10-30T16:26:37;18.50;75.10
23560;DHT22;11958;50.836;4.438;2022-10-30T16:29:19;18.50;75.00
23560;DHT22;11958;50.836;4.438;2022-10-30T16:31:47;18.40;75.40
23560;DHT22;11958;50.836;4.438;2022-10-30T16:34:30;18.40;75.40
23560;DHT22;11958;50.836;4.438;2022-10-30T16:37:00;18.50;75.20
23560;DHT22;11958;50.836;4.438;2022-10-30T16:39:27;18.60;74.80
23560;DHT22;11958;50.836;4.438;2022-10-30T16:42:00;18.60;75.00
23560;DHT22;11958;50.836;4.438;2022-10-30T16:44:31;18.40;75.70
23560;DHT22;11958;50.836;4.438;2022-10-30T16:47:04;18.40;75.90
23560;DHT22;11958;50.836;4.438;2022-10-30T16:49:35;18.40;75.40
23560;DHT22;11958;50.836;4.438;2022-10-30T16:52:04;18.40;75.80
23560;DHT22;11958;50.836;4.438;2022-10-30T16:54:33;18.30;76.00
23560;DHT22;11958;50.836;4.438;2022-10-30T16:57:01;18.40;76.40
23560;DHT22;11958;50.836;4.438;2022-10-30T16:59:32;18.40;76.50
23560;DHT22;11958;50.836;4.438;2022-10-30T17:02:00;18.40;76.20
23560;DHT22;11958;50.836;4.438;2022-10-30T17:04:33;18.20;76.60
23560;DHT22;11958;50.836;4.438;2022-10-30T17:07:25;18.10;77.90
23560;DHT22;11958;50.836;4.438;2022-10-30T17:09:53;18.10;78.00
23560;DHT22;11958;50.836;4.438;2022-10-30T17:12:24;18.10;77.90
23560;DHT22;11958;50.836;4.438;2022-10-30T17:17:36;18.30;76.10
23560;DHT22;11958;50.836;4.438;2022-10-30T17:23:03;17.90;78.20
23560;DHT22;11958;50.836;4.438;2022-10-30T17:25:39;18.10;78.40
23560;DHT22;11958;50.836;4.438;2022-10-30T17:28:05;18.00;78.30
23560;DHT22;11958;50.836;4.438;2022-10-30T17:30:42;17.90;78.60
23560;DHT22;11958;50.836;4.438;2022-10-30T17:33:35;17.80;78.50
23560;DHT22;11958;50.836;4.438;2022-10-30T17:36:04;17.80;79.30
23560;DHT22;11958;50.836;4.438;2022-10-30T17:38:31;17.70;79.50
23560;DHT22;11958;50.836;4.438;2022-10-30T17:40:58;17.40;80.20
23560;DHT22;11958;50.836;4.438;2022-10-30T17:43:28;17.40;80.10
23560;DHT22;11958;50.836;4.438;2022-10-30T17:45:54;17.80;79.40
23560;DHT22;11958;50.836;4.438;2022-10-30T17:48:21;17.30;80.10
23560;DHT22;11958;50.836;4.438;2022-10-30T17:50:49;17.20;81.00
23560;DHT22;11958;50.836;4.438;2022-10-30T17:53:20;17.10;80.90
23560;DHT22;11958;50.836;4.438;2022-10-30T17:56:11;17.20;81.30
23560;DHT22;11958;50.836;4.438;2022-10-30T17:58:38;17.20;81.30
23560;DHT22;11958;50.836;4.438;2022-10-30T18:01:04;17.30;81.20
23560;DHT22;11958;50.836;4.438;2022-10-30T18:03:29;17.10;81.30
23560;DHT22;11958;50.836;4.438;2022-10-30T18:05:55;17.00;81.60
23560;DHT22;11958;50.836;4.438;2022-10-30T18:08:24;17.00;81.60
23560;DHT22;11958;50.836;4.438;2022-10-30T18:10:49;17.00;81.90
23560;DHT22;11958;50.836;4.438;2022-10-30T18:13:15;17.00;82.30
23560;DHT22;11958;50.836;4.438;2022-10-30T18:15:58;17.20;81.40
23560;DHT22;11958;50.836;4.438;2022-10-30T18:18:24;17.70;80.70
23560;DHT22;11958;50.836;4.438;2022-10-30T18:20:50;17.20;81.30
23560;DHT22;11958;50.836;4.438;2022-10-30T18:23:22;17.20;81.50
23560;DHT22;11958;50.836;4.438;2022-10-30T18:25:49;17.10;82.10